Time;durP1;ratioP1;P1;durP2;ratioP2;P2;SDS_P1;SDS_P2;PMS_P1;PMS_P2;Temp;Humidity;BMP_temperature;BMP_pressure;BME280_temperature;BME280_humidity;BME280_pressure;Samples;Min_cycle;Max_cycle;Signal;HPM_P1;HPM_P2
2021/04/18 00:00:44;;;;;;;;;3.50;3.50;;;;;;;;5015757;28;11484;-80
2021/04/18 00:03:11;;;;;;;;;5.50;5.50;;;;;;;;5026553;28;11628;-88
2021/04/18 00:05:38;;;;;;;;;9.00;8.50;;;;;;;;5022207;28;11564;-89
2021/04/18 00:08:06;;;;;;;;;8.50;8.50;;;;;;;;5022035;28;11700;-79
2021/04/18 00:10:36;;;;;;;;;8.00;8.00;;;;;;;;5021325;28;11537;-78
2021/04/18 00:13:04;;;;;;;;;9.00;9.00;;;;;;;;5022442;28;11558;-79
2021/04/18 00:15:31;;;;;;;;;10.50;10.50;;;;;;;;5023053;28;11523;-79
2021/04/18 00:17:58;;;;;;;;;8.00;8.00;;;;;;;;5016307;28;11634;-80
2021/04/18 00:20:25;;;;;;;;;7.25;7.25;;;;;;;;5022961;28;11557;-79
2021/04/18 00:22:52;;;;;;;;;11.50;9.00;;;;;;;;5019216;28;11561;-80
2021/04/18 00:25:20;;;;;;;;;10.25;9.50;;;;;;;;5019888;28;11563;-79
2021/04/18 00:27:48;;;;;;;;;6.75;6.75;;;;;;;;5022177;28;11569;-79
2021/04/18 00:30:17;;;;;;;;;9.50;8.00;;;;;;;;5019668;28;11537;-78
2021/04/18 00:32:45;;;;;;;;;9.00;8.75;;;;;;;;5022692;28;11567;-79
2021/04/18 00:35:13;;;;;;;;;8.25;7.00;;;;;;;;5022101;28;11671;-79
2021/04/18 00:37:40;;;;;;;;;9.00;7.00;;;;;;;;5020870;28;11546;-80
2021/04/18 00:40:09;;;;;;;;;9.50;7.75;;;;;;;;5017028;28;12330;-80
2021/04/18 00:42:36;;;;;;;;;8.75;8.00;;;;;;;;5022021;28;11673;-80
2021/04/18 00:45:05;;;;;;;;;8.00;8.00;;;;;;;;5023393;28;11512;-80
2021/04/18 00:47:33;;;;;;;;;6.75;6.75;;;;;;;;5021146;28;11696;-79
2021/04/18 00:50:00;;;;;;;;;7.75;7.00;;;;;;;;5024488;28;11649;-80
2021/04/18 00:52:27;;;;;;;;;6.75;6.75;;;;;;;;5018176;28;11568;-79
2021/04/18 00:54:54;;;;;;;;;11.50;7.75;;;;;;;;5019573;28;11590;-80
2021/04/18 00:57:21;;;;;;;;;10.25;8.00;;;;;;;;5024834;28;12302;-79
2021/04/18 00:59:49;;;;;;;;;7.00;7.00;;;;;;;;5019941;28;12357;-86
2021/04/18 01:02:17;;;;;;;;;8.25;8.25;;;;;;;;5022594;28;11503;-81
2021/04/18 01:04:44;;;;;;;;;8.00;7.25;;;;;;;;5019413;28;11527;-80
2021/04/18 01:07:11;;;;;;;;;7.50;7.50;;;;;;;;5020359;28;11529;-79
2021/04/18 01:09:38;;;;;;;;;5.75;5.00;;;;;;;;5020085;28;11574;-79
2021/04/18 01:12:06;;;;;;;;;11.25;8.75;;;;;;;;5020035;28;11589;-80
2021/04/18 01:14:33;;;;;;;;;7.00;7.00;;;;;;;;5020925;28;11636;-82
2021/04/18 01:17:00;;;;;;;;;10.25;6.50;;;;;;;;5021369;28;12367;-80
2021/04/18 01:19:28;;;;;;;;;8.00;8.00;;;;;;;;5023786;28;11607;-79
2021/04/18 01:21:56;;;;;;;;;7.50;6.50;;;;;;;;5019796;28;11665;-79
2021/04/18 01:24:24;;;;;;;;;2.50;2.50;;;;;;;;5022803;28;11588;-79
2021/04/18 01:26:53;;;;;;;;;8.00;8.00;;;;;;;;5021055;28;11548;-83
2021/04/18 01:29:20;;;;;;;;;7.75;5.25;;;;;;;;5017121;28;11534;-80
2021/04/18 01:31:47;;;;;;;;;8.75;7.75;;;;;;;;5018836;28;11523;-77
2021/04/18 01:34:17;;;;;;;;;8.00;8.00;;;;;;;;5025425;28;11570;-82
2021/04/18 01:36:48;;;;;;;;;7.75;7.75;;;;;;;;5020945;28;11546;-82
2021/04/18 01:39:16;;;;;;;;;7.75;7.50;;;;;;;;5022179;28;11667;-83
2021/04/18 01:41:44;;;;;;;;;8.00;8.00;;;;;;;;5029602;28;11546;-80
2021/04/18 01:44:12;;;;;;;;;5.50;5.50;;;;;;;;5021035;28;12177;-79
2021/04/18 01:46:40;;;;;;;;;9.25;9.25;;;;;;;;5018372;28;11595;-79
2021/04/18 01:49:07;;;;;;;;;11.75;7.00;;;;;;;;5022224;28;11573;-78
2021/04/18 01:51:36;;;;;;;;;7.25;7.25;;;;;;;;5019523;28;11539;-78
2021/04/18 01:54:04;;;;;;;;;8.50;8.50;;;;;;;;5013588;28;11678;-78
2021/04/18 01:56:32;;;;;;;;;9.00;7.25;;;;;;;;5021240;28;11580;-78
2021/04/18 01:58:59;;;;;;;;;7.25;6.50;;;;;;;;5021687;28;11585;-78
2021/04/18 02:01:26;;;;;;;;;11.25;8.25;;;;;;;;5022953;28;11486;-80
2021/04/18 02:03:54;;;;;;;;;10.75;6.00;;;;;;;;4999537;28;11668;-79
2021/04/18 02:06:21;;;;;;;;;6.00;6.00;;;;;;;;5020328;28;11711;-82
2021/04/18 02:08:48;;;;;;;;;11.75;7.00;;;;;;;;5019820;28;11735;-79
2021/04/18 02:11:16;;;;;;;;;8.00;8.00;;;;;;;;5019972;28;11651;-79
2021/04/18 02:13:44;;;;;;;;;9.50;9.25;;;;;;;;5025520;28;11533;-78
2021/04/18 02:16:11;;;;;;;;;8.25;8.25;;;;;;;;5022429;28;11634;-79
2021/04/18 02:18:39;;;;;;;;;7.25;7.25;;;;;;;;5025458;28;11533;-77
2021/04/18 02:21:06;;;;;;;;;8.00;8.00;;;;;;;;5024391;28;11604;-78
2021/04/18 02:23:33;;;;;;;;;9.50;7.00;;;;;;;;5011962;28;11593;-78
2021/04/18 02:25:59;;;;;;;;;6.50;6.50;;;;;;;;5019077;28;12531;-79
2021/04/18 02:28:26;;;;;;;;;8.00;7.75;;;;;;;;5017330;28;11566;-79
2021/04/18 02:30:54;;;;;;;;;11.00;11.00;;;;;;;;5020935;28;11651;-78
2021/04/18 02:33:21;;;;;;;;;10.75;8.75;;;;;;;;5015164;28;11721;-83
2021/04/18 02:35:48;;;;;;;;;12.33;10.00;;;;;;;;5025273;28;12388;-77
2021/04/18 02:38:14;;;;;;;;;9.33;9.33;;;;;;;;5020784;28;11648;-82
2021/04/18 02:40:41;;;;;;;;;10.33;8.33;;;;;;;;5030928;28;12456;-80
2021/04/18 02:43:08;;;;;;;;;10.67;10.67;;;;;;;;5021890;28;11594;-77
2021/04/18 02:45:35;;;;;;;;;11.00;11.00;;;;;;;;5020959;28;11563;-84
2021/04/18 02:48:03;;;;;;;;;9.67;9.67;;;;;;;;5017248;28;11754;-78
2021/04/18 02:50:29;;;;;;;;;13.00;13.00;;;;;;;;5023662;28;11600;-77
2021/04/18 02:52:56;;;;;;;;;11.00;11.00;;;;;;;;5022187;28;11581;-79
2021/04/18 02:55:23;;;;;;;;;12.00;12.00;;;;;;;;5022525;28;11568;-78
2021/04/18 02:57:50;;;;;;;;;14.00;14.00;;;;;;;;5024653;28;11591;-80
2021/04/18 03:00:18;;;;;;;;;13.00;10.67;;;;;;;;5026853;28;11723;-78
2021/04/18 03:02:45;;;;;;;;;10.00;10.00;;;;;;;;5022815;28;11710;-77
2021/04/18 03:05:15;;;;;;;;;14.00;11.67;;;;;;;;5027551;28;11581;-77
2021/04/18 03:07:42;;;;;;;;;10.33;10.33;;;;;;;;5022768;28;11571;-77
2021/04/18 03:10:12;;;;;;;;;12.67;10.00;;;;;;;;5007306;28;11557;-80
2021/04/18 03:12:40;;;;;;;;;13.00;12.00;;;;;;;;5023496;28;12517;-79
2021/04/18 03:15:08;;;;;;;;;11.33;9.33;;;;;;;;5025708;28;11699;-78
2021/04/18 03:17:36;;;;;;;;;11.33;11.33;;;;;;;;5024813;28;12450;-79
2021/04/18 03:20:03;;;;;;;;;20.00;15.00;;;;;;;;5024311;28;11610;-77
2021/04/18 03:22:31;;;;;;;;;19.33;15.00;;;;;;;;5026665;28;12324;-77
2021/04/18 03:24:58;;;;;;;;;18.33;15.67;;;;;;;;5018284;28;11739;-78
2021/04/18 03:27:25;;;;;;;;;12.33;12.33;;;;;;;;5031220;28;11733;-79
2021/04/18 03:29:52;;;;;;;;;13.00;12.33;;;;;;;;5026572;28;11589;-78
2021/04/18 03:32:20;;;;;;;;;12.33;10.00;;;;;;;;5026798;28;12327;-79
2021/04/18 03:34:47;;;;;;;;;18.00;14.00;;;;;;;;5025650;28;12324;-78
2021/04/18 03:37:14;;;;;;;;;13.33;13.33;;;;;;;;5022908;28;11602;-77
2021/04/18 03:39:42;;;;;;;;;17.33;15.33;;;;;;;;5019210;28;11626;-77
2021/04/18 03:42:10;;;;;;;;;19.00;17.00;;;;;;;;5023122;28;11622;-77
2021/04/18 03:44:37;;;;;;;;;10.33;10.33;;;;;;;;5029608;28;11630;-78
2021/04/18 03:47:04;;;;;;;;;18.00;18.00;;;;;;;;5023089;28;11692;-79
2021/04/18 03:49:31;;;;;;;;;18.00;15.33;;;;;;;;5023349;28;12424;-77
2021/04/18 03:51:58;;;;;;;;;20.00;17.33;;;;;;;;5023873;28;11589;-77
2021/04/18 03:54:24;;;;;;;;;18.67;18.67;;;;;;;;5019537;28;11587;-76
2021/04/18 03:56:53;;;;;;;;;15.00;12.67;;;;;;;;5023718;28;11690;-78
2021/04/18 03:59:21;;;;;;;;;24.00;18.00;;;;;;;;5023483;28;11627;-79
2021/04/18 04:01:48;;;;;;;;;21.00;16.33;;;;;;;;5023409;28;11543;-82
2021/04/18 04:04:15;;;;;;;;;23.00;17.67;;;;;;;;5022687;28;11737;-79
2021/04/18 04:06:41;;;;;;;;;18.67;16.67;;;;;;;;5031086;28;11590;-79
2021/04/18 04:09:08;;;;;;;;;17.00;17.00;;;;;;;;5019717;28;11699;-78
2021/04/18 04:11:35;;;;;;;;;21.50;21.00;;;;;;;;5023681;28;11594;-80
2021/04/18 04:14:03;;;;;;;;;23.33;20.33;;;;;;;;5027688;28;9613;-79
2021/04/18 04:16:30;;;;;;;;;21.00;20.33;;;;;;;;5025091;28;11599;-78
2021/04/18 04:18:57;;;;;;;;;26.33;21.67;;;;;;;;5029244;28;11571;-81
2021/04/18 04:21:24;;;;;;;;;20.67;20.67;;;;;;;;5022388;28;8903;-79
2021/04/18 04:23:51;;;;;;;;;28.00;23.00;;;;;;;;5024785;28;11703;-83
2021/04/18 04:26:18;;;;;;;;;21.33;21.00;;;;;;;;5022927;28;11595;-79
2021/04/18 04:28:45;;;;;;;;;17.33;14.67;;;;;;;;5023473;28;8856;-80
2021/04/18 04:31:12;;;;;;;;;22.67;21.00;;;;;;;;5022416;28;11667;-78
2021/04/18 04:33:39;;;;;;;;;18.00;12.33;;;;;;;;5023187;28;8872;-77
2021/04/18 04:36:07;;;;;;;;;21.00;21.00;;;;;;;;5027302;28;11650;-79
2021/04/18 04:38:34;;;;;;;;;21.00;21.00;;;;;;;;5020844;28;11607;-83
2021/04/18 04:41:02;;;;;;;;;21.00;21.00;;;;;;;;5023918;28;11595;-78
2021/04/18 04:43:29;;;;;;;;;24.00;21.33;;;;;;;;5023557;28;8895;-77
2021/04/18 04:45:56;;;;;;;;;20.67;16.67;;;;;;;;5029306;28;8991;-79
2021/04/18 04:48:25;;;;;;;;;21.00;18.67;;;;;;;;5019125;28;11601;-79
2021/04/18 04:50:51;;;;;;;;;23.00;23.00;;;;;;;;5023764;28;11626;-78
2021/04/18 04:53:18;;;;;;;;;21.00;21.00;;;;;;;;5019767;28;11599;-80
2021/04/18 04:55:47;;;;;;;;;23.67;22.33;;;;;;;;5023861;28;8989;-81
2021/04/18 04:58:14;;;;;;;;;17.33;17.33;;;;;;;;5022227;28;8836;-82
2021/04/18 05:00:41;;;;;;;;;23.33;20.00;;;;;;;;5023530;28;11655;-86
2021/04/18 05:03:09;;;;;;;;;27.67;22.00;;;;;;;;5026392;28;11739;-86
2021/04/18 05:05:37;;;;;;;;;29.00;24.33;;;;;;;;5025609;28;11624;-82
2021/04/18 05:08:04;;;;;;;;;21.67;21.67;;;;;;;;5022417;28;11638;-83
2021/04/18 05:10:31;;;;;;;;;23.67;23.67;;;;;;;;5020718;28;11650;-79
2021/04/18 05:12:58;;;;;;;;;26.33;23.33;;;;;;;;5022286;28;8883;-78
2021/04/18 05:15:25;;;;;;;;;26.33;24.67;;;;;;;;5023970;28;8860;-77
2021/04/18 05:17:52;;;;;;;;;28.33;26.33;;;;;;;;5026995;28;9607;-78
2021/04/18 05:20:19;;;;;;;;;28.00;24.33;;;;;;;;5033243;28;11637;-80
2021/04/18 05:22:48;;;;;;;;;23.00;20.33;;;;;;;;5025256;28;8903;-78
2021/04/18 05:25:15;;;;;;;;;26.00;26.00;;;;;;;;5022253;28;9700;-79
2021/04/18 05:27:43;;;;;;;;;32.67;28.00;;;;;;;;5021214;28;9675;-82
2021/04/18 05:30:12;;;;;;;;;30.00;27.67;;;;;;;;5020083;28;9726;-82
2021/04/18 05:32:39;;;;;;;;;24.67;24.67;;;;;;;;4990078;28;8886;-78
2021/04/18 05:35:07;;;;;;;;;32.00;28.33;;;;;;;;5015084;28;12420;-77
2021/04/18 05:37:34;;;;;;;;;24.67;18.00;;;;;;;;5018568;28;8863;-74
2021/04/18 05:40:01;;;;;;;;;28.00;25.67;;;;;;;;5020846;28;11606;-78
2021/04/18 05:42:28;;;;;;;;;25.67;25.67;;;;;;;;5023074;28;11649;-75
2021/04/18 05:44:56;;;;;;;;;22.00;21.33;;;;;;;;5018159;28;11620;-74
2021/04/18 05:47:22;;;;;;;;;33.67;30.67;;;;;;;;5013955;28;11645;-75
2021/04/18 05:49:49;;;;;;;;;28.33;24.00;;;;;;;;5022879;28;11656;-70
2021/04/18 05:52:17;;;;;;;;;37.33;28.00;;;;;;;;5021400;28;11745;-74
2021/04/18 05:54:43;;;;;;;;;32.00;32.00;;;;;;;;5018415;28;11627;-76
2021/04/18 05:57:12;;;;;;;;;39.33;35.67;;;;;;;;5020351;28;11617;-74
2021/04/18 05:59:39;;;;;;;;;35.67;35.00;;;;;;;;5021330;28;11606;-75
2021/04/18 06:02:06;;;;;;;;;41.33;30.67;;;;;;;;5018095;28;11583;-77
2021/04/18 06:04:32;;;;;;;;;26.00;26.00;;;;;;;;5020315;28;11744;-75
2021/04/18 06:06:59;;;;;;;;;28.67;26.00;;;;;;;;5016498;28;11637;-77
2021/04/18 06:09:26;;;;;;;;;27.00;27.00;;;;;;;;5019875;28;11795;-74
2021/04/18 06:11:52;;;;;;;;;29.75;28.25;;;;;;;;5024309;28;11575;-73
2021/04/18 06:14:20;;;;;;;;;30.50;28.75;;;;;;;;5021036;28;11755;-74
2021/04/18 06:16:48;;;;;;;;;28.75;27.00;;;;;;;;5020917;28;11721;-74
2021/04/18 06:19:17;;;;;;;;;30.25;27.25;;;;;;;;5018241;28;11689;-75
2021/04/18 06:21:44;;;;;;;;;40.75;36.25;;;;;;;;5020742;28;11638;-74
2021/04/18 06:24:12;;;;;;;;;34.67;31.00;;;;;;;;5012133;28;12382;-75
2021/04/18 06:26:39;;;;;;;;;30.50;27.75;;;;;;;;5025062;28;11686;-74
2021/04/18 06:29:05;;;;;;;;;32.00;32.00;;;;;;;;5024872;28;11600;-75
2021/04/18 06:31:33;;;;;;;;;34.50;32.25;;;;;;;;5024380;28;11558;-71
2021/04/18 06:34:00;;;;;;;;;30.00;27.25;;;;;;;;5021355;28;11619;-72
2021/04/18 06:36:27;;;;;;;;;32.75;30.25;;;;;;;;5021371;28;11599;-71
2021/04/18 06:38:55;;;;;;;;;38.00;34.50;;;;;;;;5021226;28;11602;-70
2021/04/18 06:41:24;;;;;;;;;33.75;33.75;;;;;;;;5024372;28;11651;-71
2021/04/18 06:43:51;;;;;;;;;28.75;28.75;;;;;;;;5025613;28;11606;-73
2021/04/18 06:46:20;;;;;;;;;33.00;31.50;;;;;;;;5022633;28;11618;-72
2021/04/18 06:48:49;;;;;;;;;32.50;31.25;;;;;;;;5024645;28;11779;-72
2021/04/18 06:51:17;;;;;;;;;33.50;32.25;;;;;;;;5023281;28;11651;-72
2021/04/18 06:53:44;;;;;;;;;39.00;37.00;;;;;;;;5023858;28;11598;-73
2021/04/18 06:56:11;;;;;;;;;30.75;26.75;;;;;;;;5028461;28;11698;-73
2021/04/18 06:58:38;;;;;;;;;22.50;22.50;;;;;;;;5027996;28;12389;-76
2021/04/18 07:01:05;;;;;;;;;42.50;35.00;;;;;;;;5024376;28;12349;-75
2021/04/18 07:03:32;;;;;;;;;42.75;39.25;;;;;;;;5023728;28;11726;-73
2021/04/18 07:06:00;;;;;;;;;41.00;36.75;;;;;;;;5025927;28;11639;-73
2021/04/18 07:08:28;;;;;;;;;42.75;36.75;;;;;;;;5022964;28;11651;-73
2021/04/18 07:11:12;;;;;;;;;37.00;35.00;;;;;;;;5025880;28;11633;-74
2021/04/18 07:13:39;;;;;;;;;42.50;38.75;;;;;;;;5024019;28;11700;-73
2021/04/18 07:16:23;;;;;;;;;37.75;33.50;;;;;;;;5022735;28;11781;-74
2021/04/18 07:18:50;;;;;;;;;35.25;31.00;;;;;;;;5030663;28;11591;-73
2021/04/18 07:21:18;;;;;;;;;45.00;35.25;;;;;;;;5023719;28;11610;-79
2021/04/18 07:23:45;;;;;;;;;32.75;32.75;;;;;;;;5022624;28;11711;-71
2021/04/18 07:26:24;;;;;;;;;49.00;43.00;;;;;;;;5028185;28;11638;-71
2021/04/18 07:28:52;;;;;;;;;46.75;42.50;;;;;;;;5023305;28;11665;-71
2021/04/18 07:31:30;;;;;;;;;45.75;40.25;;;;;;;;5024179;28;11579;-71
2021/04/18 07:34:05;;;;;;;;;44.75;40.75;;;;;;;;5021570;28;11793;-73
2021/04/18 07:36:35;;;;;;;;;46.50;42.50;;;;;;;;5026735;28;12400;-73
2021/04/18 07:39:03;;;;;;;;;51.50;43.50;;;;;;;;5020026;28;12515;-72
2021/04/18 07:41:30;;;;;;;;;53.25;42.75;;;;;;;;5023061;28;11646;-77
2021/04/18 07:43:57;;;;;;;;;42.50;40.75;;;;;;;;5022712;28;11733;-73
2021/04/18 07:46:24;;;;;;;;;45.75;39.00;;;;;;;;5022588;28;12478;-73
2021/04/18 07:48:51;;;;;;;;;42.00;40.25;;;;;;;;5026127;28;11751;-73
2021/04/18 07:51:20;;;;;;;;;45.75;42.75;;;;;;;;5022210;28;11641;-73
2021/04/18 07:53:48;;;;;;;;;52.75;43.00;;;;;;;;5022702;28;11722;-73
2021/04/18 07:56:16;;;;;;;;;45.00;39.50;;;;;;;;5020999;28;11674;-72
2021/04/18 07:58:45;;;;;;;;;46.75;41.75;;;;;;;;5022510;28;11649;-72
2021/04/18 08:01:13;;;;;;;;;50.00;45.25;;;;;;;;5022412;28;11685;-72
2021/04/18 08:03:42;;;;;;;;;48.75;39.75;;;;;;;;5020297;28;11634;-72
2021/04/18 08:06:10;;;;;;;;;50.00;44.25;;;;;;;;5022268;28;11607;-73
2021/04/18 08:08:46;;;;;;;;;58.25;45.00;;;;;;;;5020827;28;11640;-74
2021/04/18 08:11:16;;;;;;;;;52.00;44.75;;;;;;;;5018632;28;11665;-73
2021/04/18 08:13:48;;;;;;;;;50.50;44.25;;;;;;;;5020740;28;11705;-73
2021/04/18 08:16:16;;;;;;;;;53.75;44.25;;;;;;;;5021805;28;11688;-72
2021/04/18 08:18:44;;;;;;;;;56.50;45.00;;;;;;;;5021751;28;11635;-73
2021/04/18 08:21:30;;;;;;;;;49.00;41.00;;;;;;;;5020331;28;11710;-73
2021/04/18 08:23:57;;;;;;;;;59.25;50.00;;;;;;;;5020244;28;11621;-74
2021/04/18 08:26:26;;;;;;;;;52.25;44.75;;;;;;;;5020438;28;11607;-72
2021/04/18 08:29:09;;;;;;;;;54.25;45.75;;;;;;;;5022075;28;11668;-73
2021/04/18 08:31:55;;;;;;;;;50.50;43.50;;;;;;;;5016997;28;11572;-71
2021/04/18 08:34:26;;;;;;;;;53.25;43.25;;;;;;;;5019854;28;12169;-71
2021/04/18 08:36:57;;;;;;;;;58.50;49.25;;;;;;;;5020134;28;11598;-70
2021/04/18 08:39:31;;;;;;;;;50.00;44.50;;;;;;;;5019012;28;11591;-71
2021/04/18 08:42:00;;;;;;;;;46.25;41.25;;;;;;;;5019468;28;11597;-72
2021/04/18 08:44:30;;;;;;;;;48.25;41.75;;;;;;;;5019594;28;12423;-71
2021/04/18 08:46:59;;;;;;;;;48.25;42.25;;;;;;;;5018638;28;11617;-70
2021/04/18 08:49:31;;;;;;;;;44.75;40.50;;;;;;;;5019829;28;11714;-71
2021/04/18 08:51:58;;;;;;;;;50.25;40.25;;;;;;;;5018145;28;11643;-71
2021/04/18 08:54:28;;;;;;;;;49.75;42.75;;;;;;;;5017724;28;11618;-73
2021/04/18 08:56:56;;;;;;;;;50.00;41.75;;;;;;;;5020184;28;11715;-75
2021/04/18 08:59:25;;;;;;;;;51.25;42.00;;;;;;;;5022334;28;11616;-74
2021/04/18 09:01:59;;;;;;;;;48.25;40.25;;;;;;;;5018869;28;11589;-76
2021/04/18 09:04:27;;;;;;;;;47.50;41.50;;;;;;;;5018564;28;11696;-72
2021/04/18 09:06:55;;;;;;;;;44.25;40.00;;;;;;;;5023520;28;11630;-74
2021/04/18 09:09:22;;;;;;;;;46.75;40.75;;;;;;;;5013096;28;11559;-73
2021/04/18 09:11:50;;;;;;;;;42.25;37.00;;;;;;;;5018175;28;11550;-72
2021/04/18 09:14:19;;;;;;;;;58.00;43.75;;;;;;;;5011808;28;11627;-73
2021/04/18 09:16:47;;;;;;;;;52.00;40.75;;;;;;;;5015227;28;11688;-73
2021/04/18 09:19:28;;;;;;;;;49.00;42.75;;;;;;;;5021930;28;11659;-72
2021/04/18 09:21:58;;;;;;;;;46.75;40.00;;;;;;;;5021873;28;11678;-71
2021/04/18 09:24:25;;;;;;;;;52.50;42.50;;;;;;;;5020909;28;12360;-71
2021/04/18 09:26:58;;;;;;;;;51.75;43.50;;;;;;;;5021052;28;11651;-71
2021/04/18 09:29:27;;;;;;;;;48.75;41.50;;;;;;;;5022213;28;11560;-72
2021/04/18 09:32:11;;;;;;;;;46.75;42.50;;;;;;;;5018468;28;11506;-72
2021/04/18 09:34:41;;;;;;;;;42.75;38.25;;;;;;;;5017506;28;11571;-70
2021/04/18 09:37:11;;;;;;;;;21.75;19.75;;;;;;;;5020314;28;11665;-70
2021/04/18 09:39:39;;;;;;;;;52.50;41.25;;;;;;;;5016144;28;11605;-70
2021/04/18 09:42:08;;;;;;;;;49.50;41.00;;;;;;;;5017655;28;12304;-70
2021/04/18 09:44:39;;;;;;;;;42.25;37.00;;;;;;;;5020838;28;11617;-71
2021/04/18 09:47:19;;;;;;;;;32.00;32.00;;;;;;;;5022716;28;11605;-70
2021/04/18 09:49:49;;;;;;;;;42.50;37.25;;;;;;;;5025309;28;11432;-72
2021/04/18 09:52:31;;;;;;;;;37.50;36.50;;;;;;;;5017525;28;11336;-74
2021/04/18 09:55:12;;;;;;;;;31.00;28.25;;;;;;;;5019870;28;11346;-68
2021/04/18 09:57:44;;;;;;;;;32.50;32.00;;;;;;;;5016894;28;11168;-71
2021/04/18 10:00:16;;;;;;;;;36.25;35.25;;;;;;;;5015618;28;10855;-72
2021/04/18 10:02:58;;;;;;;;;38.50;36.00;;;;;;;;5020374;28;11014;-72
2021/04/18 10:05:25;;;;;;;;;34.50;34.50;;;;;;;;5021570;28;11040;-72
2021/04/18 10:08:07;;;;;;;;;37.50;36.00;;;;;;;;5024936;28;11934;-73
2021/04/18 10:10:34;;;;;;;;;31.75;31.75;;;;;;;;5019615;28;10788;-72
2021/04/18 10:13:00;;;;;;;;;38.75;32.00;;;;;;;;5013425;28;10631;-72
2021/04/18 10:15:28;;;;;;;;;31.75;31.75;;;;;;;;5012217;28;11392;-71
2021/04/18 10:17:56;;;;;;;;;28.50;25.00;;;;;;;;5021874;28;10462;-70
2021/04/18 10:20:25;;;;;;;;;31.75;30.25;;;;;;;;5021006;28;10456;-72
2021/04/18 10:23:07;;;;;;;;;32.25;29.00;;;;;;;;5018925;28;10385;-71
2021/04/18 10:25:35;;;;;;;;;37.75;33.25;;;;;;;;5018741;28;10262;-72
2021/04/18 10:28:02;;;;;;;;;40.00;34.00;;;;;;;;5020348;28;10510;-71
2021/04/18 10:30:29;;;;;;;;;38.25;35.00;;;;;;;;5020601;28;10351;-71
2021/04/18 10:32:58;;;;;;;;;34.00;32.75;;;;;;;;5019883;28;10259;-70
2021/04/18 10:35:25;;;;;;;;;39.00;35.25;;;;;;;;5012269;28;10824;-70
2021/04/18 10:37:52;;;;;;;;;59.75;49.25;;;;;;;;5024562;28;11021;-70
2021/04/18 10:40:23;;;;;;;;;44.00;39.75;;;;;;;;5019372;28;11825;-71
2021/04/18 10:42:50;;;;;;;;;35.25;33.00;;;;;;;;5021549;28;10282;-69
2021/04/18 10:45:18;;;;;;;;;34.50;33.75;;;;;;;;5018913;28;10012;-70
2021/04/18 10:47:45;;;;;;;;;36.25;34.00;;;;;;;;5012488;28;9978;-70
2021/04/18 10:50:14;;;;;;;;;34.50;30.50;;;;;;;;5018798;28;10018;-70
2021/04/18 10:52:41;;;;;;;;;44.50;37.75;;;;;;;;5020380;28;9960;-71
2021/04/18 10:55:11;;;;;;;;;27.25;27.25;;;;;;;;5020522;28;10073;-71
2021/04/18 10:57:38;;;;;;;;;40.00;34.50;;;;;;;;5016639;28;10033;-71
2021/04/18 11:00:07;;;;;;;;;41.00;36.50;;;;;;;;5023378;28;10066;-72
2021/04/18 11:02:34;;;;;;;;;30.00;26.75;;;;;;;;5020631;28;10762;-71
2021/04/18 11:05:02;;;;;;;;;37.25;32.75;;;;;;;;5020295;28;9575;-71
2021/04/18 11:07:31;;;;;;;;;29.75;27.75;;;;;;;;5016394;28;9947;-71
2021/04/18 11:09:57;;;;;;;;;30.25;28.00;;;;;;;;5018437;28;9591;-69
2021/04/18 11:12:24;;;;;;;;;29.00;23.75;;;;;;;;5024204;28;9517;-72
2021/04/18 11:14:51;;;;;;;;;26.25;25.50;;;;;;;;5013747;28;9523;-72
2021/04/18 11:17:18;;;;;;;;;29.25;28.25;;;;;;;;5022804;28;9619;-71
2021/04/18 11:19:45;;;;;;;;;37.25;29.50;;;;;;;;5024909;28;9578;-71
2021/04/18 11:22:12;;;;;;;;;29.50;29.50;;;;;;;;5025340;28;9556;-71
2021/04/18 11:24:41;;;;;;;;;28.00;28.00;;;;;;;;5018518;28;9479;-71
2021/04/18 11:27:07;;;;;;;;;10.00;8.33;;;;;;;;5024057;28;9429;-72
2021/04/18 11:29:34;;;;;;;;;26.33;26.33;;;;;;;;5024677;28;9482;-70
2021/04/18 11:32:01;;;;;;;;;33.00;30.00;;;;;;;;5023065;28;9370;-71
2021/04/18 11:34:27;;;;;;;;;31.33;31.33;;;;;;;;5019711;28;9377;-71
2021/04/18 11:36:54;;;;;;;;;29.33;29.33;;;;;;;;5024899;28;9212;-71
2021/04/18 11:39:21;;;;;;;;;27.33;27.00;;;;;;;;5015317;28;9405;-71
2021/04/18 11:41:49;;;;;;;;;22.33;22.33;;;;;;;;5023541;28;9108;-72
2021/04/18 11:44:16;;;;;;;;;23.67;23.67;;;;;;;;5022345;28;9211;-75
2021/04/18 11:46:44;;;;;;;;;25.67;23.00;;;;;;;;5018838;28;9211;-71
2021/04/18 11:49:11;;;;;;;;;27.75;23.25;;;;;;;;5024744;28;9041;-74
2021/04/18 11:51:38;;;;;;;;;26.67;25.33;;;;;;;;5023566;28;8860;-75
2021/04/18 11:54:06;;;;;;;;;22.00;22.00;;;;;;;;5023606;28;9745;-74
2021/04/18 11:56:33;;;;;;;;;24.33;24.00;;;;;;;;5025115;28;8957;-73
2021/04/18 11:59:01;;;;;;;;;23.00;21.50;;;;;;;;5016934;28;9102;-74
2021/04/18 12:01:28;;;;;;;;;17.00;17.00;;;;;;;;5022482;28;8836;-73
2021/04/18 12:03:55;;;;;;;;;25.25;23.75;;;;;;;;5023301;28;8892;-75
2021/04/18 12:06:22;;;;;;;;;20.50;18.75;;;;;;;;5024684;28;9897;-74
2021/04/18 12:08:49;;;;;;;;;19.00;17.75;;;;;;;;5021811;28;9041;-73
2021/04/18 12:11:16;;;;;;;;;20.50;20.50;;;;;;;;5024090;28;8891;-72
2021/04/18 12:13:45;;;;;;;;;28.25;25.00;;;;;;;;5021321;28;8879;-75
2021/04/18 12:16:15;;;;;;;;;25.50;25.00;;;;;;;;5019809;28;8855;-73
2021/04/18 12:18:42;;;;;;;;;16.75;16.75;;;;;;;;5022653;28;8872;-72
2021/04/18 12:21:09;;;;;;;;;21.50;21.50;;;;;;;;5018343;28;8880;-74
2021/04/18 12:23:36;;;;;;;;;22.00;22.00;;;;;;;;5022230;28;8875;-75
2021/04/18 12:26:04;;;;;;;;;12.00;11.00;;;;;;;;5023424;28;8883;-72
2021/04/18 12:28:31;;;;;;;;;26.25;24.00;;;;;;;;5022075;28;8880;-74
2021/04/18 12:30:58;;;;;;;;;22.25;21.50;;;;;;;;5022225;28;8822;-73
2021/04/18 12:33:27;;;;;;;;;25.00;23.00;;;;;;;;5018309;28;8859;-73
2021/04/18 12:35:54;;;;;;;;;20.50;19.00;;;;;;;;5023503;28;8844;-73
2021/04/18 12:38:20;;;;;;;;;19.25;19.25;;;;;;;;5018266;28;8915;-73
2021/04/18 12:40:47;;;;;;;;;21.25;21.25;;;;;;;;5008644;28;8878;-72
2021/04/18 12:43:14;;;;;;;;;20.00;20.00;;;;;;;;5015925;28;8867;-73
2021/04/18 12:45:41;;;;;;;;;23.67;21.33;;;;;;;;5013999;28;8872;-73
2021/04/18 12:48:09;;;;;;;;;22.75;22.75;;;;;;;;5009831;28;8850;-73
2021/04/18 12:50:37;;;;;;;;;24.50;24.50;;;;;;;;5017005;28;8872;-74
2021/04/18 12:53:04;;;;;;;;;20.00;20.00;;;;;;;;5014075;28;8864;-72
2021/04/18 12:55:31;;;;;;;;;19.50;19.50;;;;;;;;5009433;28;8886;-73
2021/04/18 12:57:58;;;;;;;;;20.25;18.75;;;;;;;;5019106;28;8911;-73
2021/04/18 13:00:26;;;;;;;;;22.25;21.25;;;;;;;;5021408;28;8808;-73
2021/04/18 13:02:53;;;;;;;;;19.00;19.00;;;;;;;;5022405;28;9013;-72
2021/04/18 13:05:20;;;;;;;;;16.75;16.75;;;;;;;;5023421;28;9018;-73
2021/04/18 13:07:48;;;;;;;;;21.75;20.50;;;;;;;;5018026;28;8902;-74
2021/04/18 13:10:16;;;;;;;;;22.50;20.25;;;;;;;;5021369;28;8951;-71
2021/04/18 13:12:43;;;;;;;;;22.50;22.25;;;;;;;;5021731;28;8872;-73
2021/04/18 13:15:12;;;;;;;;;22.50;22.50;;;;;;;;5022679;28;9431;-71
2021/04/18 13:17:39;;;;;;;;;22.00;20.25;;;;;;;;5020126;28;8872;-74
2021/04/18 13:20:07;;;;;;;;;20.50;20.50;;;;;;;;5016728;28;8876;-74
2021/04/18 13:22:34;;;;;;;;;22.75;22.00;;;;;;;;5027951;28;9690;-73
2021/04/18 13:25:03;;;;;;;;;20.25;20.25;;;;;;;;5022286;28;8848;-72
2021/04/18 13:27:30;;;;;;;;;19.00;19.00;;;;;;;;5021282;28;8852;-75
2021/04/18 13:29:57;;;;;;;;;18.00;18.00;;;;;;;;5015556;28;8878;-74
2021/04/18 13:32:24;;;;;;;;;24.25;22.50;;;;;;;;5020549;28;8796;-71
2021/04/18 13:34:51;;;;;;;;;12.25;12.25;;;;;;;;5019301;28;8855;-74
2021/04/18 13:37:21;;;;;;;;;17.00;17.00;;;;;;;;5021695;28;8900;-73
2021/04/18 13:39:48;;;;;;;;;17.75;17.75;;;;;;;;5018057;28;8933;-75
2021/04/18 13:42:15;;;;;;;;;20.75;16.50;;;;;;;;5020272;28;8848;-73
2021/04/18 13:44:43;;;;;;;;;22.00;20.50;;;;;;;;5018964;28;8863;-73
2021/04/18 13:47:10;;;;;;;;;19.50;19.00;;;;;;;;5024986;28;8876;-74
2021/04/18 13:49:37;;;;;;;;;16.75;16.25;;;;;;;;5021859;28;8986;-74
2021/04/18 13:52:05;;;;;;;;;18.50;17.75;;;;;;;;5014579;28;8990;-76
2021/04/18 13:54:32;;;;;;;;;17.00;17.00;;;;;;;;5022475;28;8941;-70
2021/04/18 13:56:59;;;;;;;;;21.25;19.50;;;;;;;;5019730;28;8864;-78
2021/04/18 13:59:27;;;;;;;;;20.50;20.50;;;;;;;;5022125;28;8880;-77
2021/04/18 14:01:55;;;;;;;;;21.25;20.00;;;;;;;;5021329;28;8804;-79
2021/04/18 14:04:22;;;;;;;;;10.75;10.50;;;;;;;;5022152;28;9000;-76
2021/04/18 14:06:48;;;;;;;;;19.33;16.33;;;;;;;;5022783;28;8966;-78
2021/04/18 14:09:15;;;;;;;;;15.50;15.50;;;;;;;;5020050;28;8888;-78
2021/04/18 14:11:42;;;;;;;;;14.25;14.25;;;;;;;;5023080;28;8887;-78
2021/04/18 14:14:09;;;;;;;;;14.00;12.75;;;;;;;;5020220;28;9054;-77
2021/04/18 14:16:37;;;;;;;;;14.50;12.50;;;;;;;;5019449;28;8934;-73
2021/04/18 14:19:05;;;;;;;;;21.50;20.25;;;;;;;;5022979;28;8885;-78
2021/04/18 14:21:32;;;;;;;;;15.75;14.00;;;;;;;;5022369;28;8876;-80
2021/04/18 14:23:59;;;;;;;;;13.00;13.00;;;;;;;;5019317;28;8871;-78
2021/04/18 14:26:26;;;;;;;;;19.25;18.75;;;;;;;;5018184;28;8983;-80
2021/04/18 14:28:53;;;;;;;;;15.00;15.00;;;;;;;;5022272;28;8883;-76
2021/04/18 14:31:20;;;;;;;;;18.50;18.50;;;;;;;;5020418;28;8804;-73